Bookmark and Share
Track history (hours):
 

MSC Giovanna

Last reported at 2014-Apr-18 19:23 UTC. Time now 2014-Apr-19 00:09 UTC.
Position N 38°35' E 015°36'.

Length 178 m; draft 7.9 m.

Type: Ship (hazmat cat A). MMSI: 357702000.

NotesDate/timePositionNaut miles runAvg speedWind from/ knotsBaromVisibWave heightAir tempDewpointWater temp
2014-Apr-18 19:23N 38°35' E 015°36'2 1.1
2014-Apr-18 17:15N 38°34' E 015°33'16 1.1
2014-Apr-18 02:31N 38°20' E 015°43'1111.2
2014-Apr-18 01:31N 38°10' E 015°37'4 3.8
2014-Apr-18 00:26N 38°06' E 015°36'4 4.2
2014-Apr-17 23:30N 38°02' E 015°36'1611.9
2014-Apr-17 22:07N 37°51' E 015°51'37212.0
2014-Apr-16 15:07N 37°28' E 023°40'813.3
2014-Apr-16 14:33N 37°35' E 023°42'1313.2
2014-Apr-16 13:33N 37°48' E 023°37'10 9.5
2014-Apr-16 12:33N 37°57' E 023°36'0 0.2
2014-Apr-16 11:32N 37°57' E 023°36'0 0.0
2014-Apr-16 10:32N 37°57' E 023°36'0 0.0
2014-Apr-16 09:32N 37°57' E 023°36'0 0.0
2014-Apr-16 08:29N 37°57' E 023°36'0 0.0
2014-Apr-16 07:29N 37°57' E 023°36'0 0.0
2014-Apr-16 06:30N 37°57' E 023°36'0 0.0
2014-Apr-16 05:31N 37°57' E 023°36'0 0.0
2014-Apr-16 04:31N 37°57' E 023°36'0 0.0
2014-Apr-16 03:31N 37°57' E 023°36'0 0.0
2014-Apr-16 02:31N 37°57' E 023°36'0 0.0
2014-Apr-16 01:30N 37°57' E 023°36'0 0.0
2014-Apr-16 00:28N 37°57' E 023°36'0 0.0
2014-Apr-15 23:30N 37°57' E 023°36'0 0.0
2014-Apr-15 22:31N 37°57' E 023°36'0 0.0
2014-Apr-15 21:29N 37°57' E 023°36'0 0.0
2014-Apr-15 20:32N 37°57' E 023°36'0 0.0
2014-Apr-15 19:33N 37°57' E 023°36'0 0.0
2014-Apr-15 18:34N 37°57' E 023°36'6 5.7
2014-Apr-15 17:33N 37°52' E 023°38'1413.5
2014-Apr-15 16:33N 37°40' E 023°46'1515.2
2014-Apr-15 15:33N 37°30' E 024°00'29 9.7
2014-Apr-15 12:34N 37°14' E 024°31'1514.7
2014-Apr-15 11:34N 37°14' E 024°50'1514.8
2014-Apr-15 10:34N 37°15' E 025°08'1514.7
2014-Apr-15 09:33N 37°15' E 025°27'1514.7
2014-Apr-15 08:34N 37°12' E 025°45'1514.9
2014-Apr-15 07:33N 37°04' E 026°01'1514.9
2014-Apr-15 06:34N 36°56' E 026°16'1515.0
2014-Apr-15 05:32N 36°48' E 026°32'3015.0
2014-Apr-15 03:33N 36°32' E 027°04'  
2014-Apr-11 23:33N 31°09' E 029°48'0 0.0
2014-Apr-11 22:30N 31°09' E 029°48'0 0.0
2014-Apr-11 21:33N 31°09' E 029°48'0 0.0
2014-Apr-11 20:32N 31°09' E 029°48'4 1.7
2014-Apr-11 18:24N 31°12' E 029°47'2 1.8
2014-Apr-11 17:33N 31°12' E 029°45'0 0.0
2014-Apr-11 14:31N 31°12' E 029°45'  
2014-Apr-08 21:28N 31°49' E 034°36'0 0.0
2014-Apr-08 20:33N 31°49' E 034°36'0 0.0
2014-Apr-08 19:33N 31°49' E 034°36'  

Dump ship's entire track history

sailing weather and tide predictions

MSC Giovanna — 3FRB9 — position and weather